sensor_id;sensor_type;location;lat;lon;timestamp;P1;durP1;ratioP1;P2;durP2;ratioP2
40048;SDS011;54524;55.740;37.544;2022-11-09T00:01:03;15.9;;;10.4;;
40048;SDS011;54524;55.740;37.544;2022-11-09T00:02:04;15.8;;;10.4;;
40048;SDS011;54524;55.740;37.544;2022-11-09T00:03:04;15.7;;;10.4;;
40048;SDS011;54524;55.740;37.544;2022-11-09T00:04:06;17.3;;;10.5;;
40048;SDS011;54524;55.740;37.544;2022-11-09T00:05:07;17.1;;;10.4;;
40048;SDS011;54524;55.740;37.544;2022-11-09T00:06:07;17.1;;;10.4;;
40048;SDS011;54524;55.740;37.544;2022-11-09T00:07:10;16.5;;;10.5;;
40048;SDS011;54524;55.740;37.544;2022-11-09T00:08:10;16.7;;;10.6;;
40048;SDS011;54524;55.740;37.544;2022-11-09T00:09:11;16.4;;;10.5;;
40048;SDS011;54524;55.740;37.544;2022-11-09T00:11:03;15.2;;;10.2;;
40048;SDS011;54524;55.740;37.544;2022-11-09T00:12:04;15.7;;;10.1;;
40048;SDS011;54524;55.740;37.544;2022-11-09T00:13:06;13.7;;;9.8;;
40048;SDS011;54524;55.740;37.544;2022-11-09T00:14:11;13.8;;;9.8;;
40048;SDS011;54524;55.740;37.544;2022-11-09T00:15:12;14.1;;;9.9;;
40048;SDS011;54524;55.740;37.544;2022-11-09T00:16:13;16.1;;;10.4;;
40048;SDS011;54524;55.740;37.544;2022-11-09T00:17:15;16.2;;;10.5;;
40048;SDS011;54524;55.740;37.544;2022-11-09T00:18:15;16.2;;;10.5;;
40048;SDS011;54524;55.740;37.544;2022-11-09T00:19:16;17.2;;;10.2;;
40048;SDS011;54524;55.740;37.544;2022-11-09T00:21:04;16.6;;;10.3;;
40048;SDS011;54524;55.740;37.544;2022-11-09T00:22:05;15.5;;;10.3;;
40048;SDS011;54524;55.740;37.544;2022-11-09T00:23:05;15.2;;;10.2;;
40048;SDS011;54524;55.740;37.544;2022-11-09T00:24:06;15.4;;;10.2;;
40048;SDS011;54524;55.740;37.544;2022-11-09T00:25:07;14.7;;;9.9;;
40048;SDS011;54524;55.740;37.544;2022-11-09T00:26:08;14.7;;;9.9;;
40048;SDS011;54524;55.740;37.544;2022-11-09T00:27:09;15.4;;;10;;
40048;SDS011;54524;55.740;37.544;2022-11-09T00:28:10;16.6;;;9.7;;
40048;SDS011;54524;55.740;37.544;2022-11-09T00:29:11;16.6;;;9.7;;
40048;SDS011;54524;55.740;37.544;2022-11-09T00:31:04;15.4;;;10;;
40048;SDS011;54524;55.740;37.544;2022-11-09T00:32:05;15.4;;;10;;
40048;SDS011;54524;55.740;37.544;2022-11-09T00:33:05;15.3;;;10.1;;
40048;SDS011;54524;55.740;37.544;2022-11-09T00:34:05;14.9;;;10;;
40048;SDS011;54524;55.740;37.544;2022-11-09T00:35:06;15;;;10;;
40048;SDS011;54524;55.740;37.544;2022-11-09T00:36:09;15.2;;;10.1;;
40048;SDS011;54524;55.740;37.544;2022-11-09T00:37:10;15.6;;;10;;
40048;SDS011;54524;55.740;37.544;2022-11-09T00:38:11;15.7;;;10.1;;
40048;SDS011;54524;55.740;37.544;2022-11-09T00:39:11;15.7;;;10.1;;
40048;SDS011;54524;55.740;37.544;2022-11-09T00:41:02;15.2;;;10;;
40048;SDS011;54524;55.740;37.544;2022-11-09T00:42:03;15.2;;;10;;
40048;SDS011;54524;55.740;37.544;2022-11-09T00:43:06;15.1;;;10;;
40048;SDS011;54524;55.740;37.544;2022-11-09T00:44:06;15.1;;;9.9;;
40048;SDS011;54524;55.740;37.544;2022-11-09T00:45:07;15;;;9.9;;
40048;SDS011;54524;55.740;37.544;2022-11-09T00:46:08;15;;;9.9;;
40048;SDS011;54524;55.740;37.544;2022-11-09T00:47:09;15.4;;;10.4;;
40048;SDS011;54524;55.740;37.544;2022-11-09T00:48:09;16;;;10.3;;
40048;SDS011;54524;55.740;37.544;2022-11-09T00:49:10;15.7;;;10.3;;
40048;SDS011;54524;55.740;37.544;2022-11-09T00:51:02;15.1;;;10;;
40048;SDS011;54524;55.740;37.544;2022-11-09T00:52:03;15.7;;;10.1;;
40048;SDS011;54524;55.740;37.544;2022-11-09T00:53:04;17.8;;;10.4;;
40048;SDS011;54524;55.740;37.544;2022-11-09T00:54:04;17.9;;;10.4;;
40048;SDS011;54524;55.740;37.544;2022-11-09T00:55:07;17.8;;;10.4;;
40048;SDS011;54524;55.740;37.544;2022-11-09T00:56:09;17.6;;;10.3;;
40048;SDS011;54524;55.740;37.544;2022-11-09T00:57:11;17.5;;;10.2;;
40048;SDS011;54524;55.740;37.544;2022-11-09T00:58:11;17;;;10.2;;
40048;SDS011;54524;55.740;37.544;2022-11-09T00:59:11;16.4;;;10.4;;
40048;SDS011;54524;55.740;37.544;2022-11-09T01:01:04;16.7;;;10.6;;
40048;SDS011;54524;55.740;37.544;2022-11-09T01:02:05;16.9;;;10.9;;
40048;SDS011;54524;55.740;37.544;2022-11-09T01:03:06;17;;;10.9;;
40048;SDS011;54524;55.740;37.544;2022-11-09T01:04:06;17;;;10.9;;
40048;SDS011;54524;55.740;37.544;2022-11-09T01:05:07;16.1;;;10.4;;
40048;SDS011;54524;55.740;37.544;2022-11-09T01:06:08;16.1;;;10.4;;
40048;SDS011;54524;55.740;37.544;2022-11-09T01:07:10;16.3;;;10.5;;
40048;SDS011;54524;55.740;37.544;2022-11-09T01:08:10;15.8;;;10.9;;
40048;SDS011;54524;55.740;37.544;2022-11-09T01:09:11;15.9;;;10.9;;
40048;SDS011;54524;55.740;37.544;2022-11-09T01:11:03;14.2;;;10.2;;
40048;SDS011;54524;55.740;37.544;2022-11-09T01:12:04;14.1;;;10.3;;
40048;SDS011;54524;55.740;37.544;2022-11-09T01:13:05;13.8;;;10.2;;
40048;SDS011;54524;55.740;37.544;2022-11-09T01:14:05;18.1;;;10.5;;
40048;SDS011;54524;55.740;37.544;2022-11-09T01:15:06;18.2;;;10.5;;
40048;SDS011;54524;55.740;37.544;2022-11-09T01:16:07;18.4;;;10.5;;
40048;SDS011;54524;55.740;37.544;2022-11-09T01:17:09;16.3;;;10.7;;
40048;SDS011;54524;55.740;37.544;2022-11-09T01:18:10;16.6;;;10.8;;
40048;SDS011;54524;55.740;37.544;2022-11-09T01:19:10;16.5;;;10.8;;
40048;SDS011;54524;55.740;37.544;2022-11-09T01:21:03;16;;;10.7;;
40048;SDS011;54524;55.740;37.544;2022-11-09T01:22:04;15.9;;;10.8;;
40048;SDS011;54524;55.740;37.544;2022-11-09T01:23:05;18.3;;;10.6;;
40048;SDS011;54524;55.740;37.544;2022-11-09T01:24:05;18.2;;;10.6;;
40048;SDS011;54524;55.740;37.544;2022-11-09T01:25:06;18.4;;;10.6;;
40048;SDS011;54524;55.740;37.544;2022-11-09T01:26:08;16.4;;;10.9;;
40048;SDS011;54524;55.740;37.544;2022-11-09T01:27:09;16.3;;;10.9;;
40048;SDS011;54524;55.740;37.544;2022-11-09T01:28:10;16.3;;;10.9;;
40048;SDS011;54524;55.740;37.544;2022-11-09T01:29:10;17;;;11.3;;
40048;SDS011;54524;55.740;37.544;2022-11-09T01:31:03;17.4;;;11.3;;
40048;SDS011;54524;55.740;37.544;2022-11-09T01:32:04;17.4;;;11.3;;
40048;SDS011;54524;55.740;37.544;2022-11-09T01:33:05;18.6;;;11.1;;
40048;SDS011;54524;55.740;37.544;2022-11-09T01:34:06;17.7;;;11;;
40048;SDS011;54524;55.740;37.544;2022-11-09T01:35:06;17.7;;;11;;
40048;SDS011;54524;55.740;37.544;2022-11-09T01:36:08;17.3;;;11.4;;
40048;SDS011;54524;55.740;37.544;2022-11-09T01:37:10;17.6;;;11.5;;
40048;SDS011;54524;55.740;37.544;2022-11-09T01:38:11;17.7;;;11.5;;
40048;SDS011;54524;55.740;37.544;2022-11-09T01:39:11;17.5;;;11.2;;
40048;SDS011;54524;55.740;37.544;2022-11-09T01:41:03;6.30;;;1.20;;
40048;SDS011;54524;55.740;37.544;2022-11-09T01:42:04;17.6;;;11;;
40048;SDS011;54524;55.740;37.544;2022-11-09T01:43:05;17.7;;;11.1;;
40048;SDS011;54524;55.740;37.544;2022-11-09T01:44:07;18.1;;;11.3;;
40048;SDS011;54524;55.740;37.544;2022-11-09T01:45:19;18.2;;;11.5;;
40048;SDS011;54524;55.740;37.544;2022-11-09T01:46:21;17.7;;;11.5;;
40048;SDS011;54524;55.740;37.544;2022-11-09T01:47:23;17.5;;;11.4;;
40048;SDS011;54524;55.740;37.544;2022-11-09T01:48:26;16.9;;;11.2;;
40048;SDS011;54524;55.740;37.544;2022-11-09T01:49:32;17.1;;;11.3;;
40048;SDS011;54524;55.740;37.544;2022-11-09T01:51:05;19.1;;;11.6;;
40048;SDS011;54524;55.740;37.544;2022-11-09T01:52:07;19.7;;;11.5;;
40048;SDS011;54524;55.740;37.544;2022-11-09T01:53:11;19.8;;;11.6;;
40048;SDS011;54524;55.740;37.544;2022-11-09T01:54:13;17.3;;;11.3;;
40048;SDS011;54524;55.740;37.544;2022-11-09T01:55:16;17.3;;;11.3;;
40048;SDS011;54524;55.740;37.544;2022-11-09T01:56:17;17.2;;;11.4;;
40048;SDS011;54524;55.740;37.544;2022-11-09T01:57:20;16.2;;;10.9;;
40048;SDS011;54524;55.740;37.544;2022-11-09T01:58:21;16.2;;;11;;
40048;SDS011;54524;55.740;37.544;2022-11-09T01:59:26;16.7;;;11.1;;
40048;SDS011;54524;55.740;37.544;2022-11-09T02:01:03;17;;;11.4;;
40048;SDS011;54524;55.740;37.544;2022-11-09T02:02:04;16.9;;;11.5;;
40048;SDS011;54524;55.740;37.544;2022-11-09T02:03:06;20.7;;;11.7;;
40048;SDS011;54524;55.740;37.544;2022-11-09T02:04:09;20.6;;;11.8;;
40048;SDS011;54524;55.740;37.544;2022-11-09T02:05:11;20.6;;;11.7;;
40048;SDS011;54524;55.740;37.544;2022-11-09T02:06:13;18.5;;;11.2;;
40048;SDS011;54524;55.740;37.544;2022-11-09T02:07:15;18.3;;;11.2;;
40048;SDS011;54524;55.740;37.544;2022-11-09T02:08:16;18.9;;;11.2;;
40048;SDS011;54524;55.740;37.544;2022-11-09T02:09:19;18.6;;;11.8;;
40048;SDS011;54524;55.740;37.544;2022-11-09T02:11:04;18.3;;;11.9;;
40048;SDS011;54524;55.740;37.544;2022-11-09T02:12:06;18.7;;;11.9;;
40048;SDS011;54524;55.740;37.544;2022-11-09T02:13:07;18.8;;;11.9;;
40048;SDS011;54524;55.740;37.544;2022-11-09T02:14:08;18.8;;;11.9;;
40048;SDS011;54524;55.740;37.544;2022-11-09T02:15:09;18.7;;;11.8;;
40048;SDS011;54524;55.740;37.544;2022-11-09T02:16:11;19.1;;;11.9;;
40048;SDS011;54524;55.740;37.544;2022-11-09T02:17:13;19.2;;;12;;
40048;SDS011;54524;55.740;37.544;2022-11-09T02:18:13;20;;;12.1;;
40048;SDS011;54524;55.740;37.544;2022-11-09T02:19:14;20;;;12.1;;
40048;SDS011;54524;55.740;37.544;2022-11-09T02:21:02;20;;;12.1;;
40048;SDS011;54524;55.740;37.544;2022-11-09T02:22:03;17.9;;;11.6;;
40048;SDS011;54524;55.740;37.544;2022-11-09T02:23:03;17.5;;;11.6;;
40048;SDS011;54524;55.740;37.544;2022-11-09T02:24:04;17.5;;;11.7;;
40048;SDS011;54524;55.740;37.544;2022-11-09T02:25:05;18.8;;;11.3;;
40048;SDS011;54524;55.740;37.544;2022-11-09T02:26:08;18.6;;;11.3;;
40048;SDS011;54524;55.740;37.544;2022-11-09T02:27:10;19;;;11.3;;
40048;SDS011;54524;55.740;37.544;2022-11-09T02:28:11;17.9;;;10.9;;
40048;SDS011;54524;55.740;37.544;2022-11-09T02:29:12;17.9;;;10.9;;
40048;SDS011;54524;55.740;37.544;2022-11-09T02:31:03;17.2;;;11.7;;
40048;SDS011;54524;55.740;37.544;2022-11-09T02:32:05;17.1;;;11.7;;
40048;SDS011;54524;55.740;37.544;2022-11-09T02:33:07;17;;;11.6;;
40048;SDS011;54524;55.740;37.544;2022-11-09T02:34:08;16.9;;;10.7;;
40048;SDS011;54524;55.740;37.544;2022-11-09T02:35:11;16.2;;;10.6;;
40048;SDS011;54524;55.740;37.544;2022-11-09T02:36:12;16.2;;;10.6;;
40048;SDS011;54524;55.740;37.544;2022-11-09T02:37:22;16.8;;;10.8;;
40048;SDS011;54524;55.740;37.544;2022-11-09T02:38:23;16.1;;;10.8;;
40048;SDS011;54524;55.740;37.544;2022-11-09T02:39:24;15.8;;;10.4;;
40048;SDS011;54524;55.740;37.544;2022-11-09T02:41:02;15.8;;;10.4;;
40048;SDS011;54524;55.740;37.544;2022-11-09T02:42:04;15.7;;;10.5;;
40048;SDS011;54524;55.740;37.544;2022-11-09T02:43:06;14.7;;;10.2;;
40048;SDS011;54524;55.740;37.544;2022-11-09T02:44:07;14.9;;;10.2;;
40048;SDS011;54524;55.740;37.544;2022-11-09T02:45:09;15.9;;;10.2;;
40048;SDS011;54524;55.740;37.544;2022-11-09T02:46:09;19;;;10.9;;
40048;SDS011;54524;55.740;37.544;2022-11-09T02:47:10;18.8;;;10.9;;
40048;SDS011;54524;55.740;37.544;2022-11-09T02:48:11;18.9;;;10.8;;
40048;SDS011;54524;55.740;37.544;2022-11-09T02:49:11;15.4;;;9.8;;
40048;SDS011;54524;55.740;37.544;2022-11-09T02:51:02;15.6;;;9.9;;
40048;SDS011;54524;55.740;37.544;2022-11-09T02:52:03;15;;;9.5;;
40048;SDS011;54524;55.740;37.544;2022-11-09T02:53:03;14.9;;;9.6;;
40048;SDS011;54524;55.740;37.544;2022-11-09T02:54:04;14.8;;;9.5;;
40048;SDS011;54524;55.740;37.544;2022-11-09T02:55:05;13.8;;;9;;
40048;SDS011;54524;55.740;37.544;2022-11-09T02:56:06;14.1;;;9.1;;
40048;SDS011;54524;55.740;37.544;2022-11-09T02:57:07;14.5;;;9.2;;
40048;SDS011;54524;55.740;37.544;2022-11-09T02:58:08;13.9;;;9.4;;
40048;SDS011;54524;55.740;37.544;2022-11-09T02:59:08;14.4;;;9.5;;
40048;SDS011;54524;55.740;37.544;2022-11-09T03:01:03;14.2;;;8.5;;
40048;SDS011;54524;55.740;37.544;2022-11-09T03:02:03;14.3;;;8.6;;
40048;SDS011;54524;55.740;37.544;2022-11-09T03:03:04;14.7;;;8.5;;
40048;SDS011;54524;55.740;37.544;2022-11-09T03:04:05;13.2;;;8.2;;
40048;SDS011;54524;55.740;37.544;2022-11-09T03:05:06;13.1;;;8.2;;
40048;SDS011;54524;55.740;37.544;2022-11-09T03:06:06;12.9;;;8.3;;
40048;SDS011;54524;55.740;37.544;2022-11-09T03:07:08;0;;;0;;
40048;SDS011;54524;55.740;37.544;2022-11-09T03:08:08;13.9;;;8.8;;
40048;SDS011;54524;55.740;37.544;2022-11-09T03:09:10;13.8;;;8.8;;
40048;SDS011;54524;55.740;37.544;2022-11-09T03:11:03;15.5;;;9.2;;
40048;SDS011;54524;55.740;37.544;2022-11-09T03:12:05;15.7;;;9.3;;
40048;SDS011;54524;55.740;37.544;2022-11-09T03:13:28;11.9;;;8.3;;
40048;SDS011;54524;55.740;37.544;2022-11-09T03:14:28;11.9;;;8.3;;
40048;SDS011;54524;55.740;37.544;2022-11-09T03:15:29;12.3;;;8.3;;
40048;SDS011;54524;55.740;37.544;2022-11-09T03:16:29;13.5;;;8.7;;
40048;SDS011;54524;55.740;37.544;2022-11-09T03:17:31;13.4;;;8.7;;
40048;SDS011;54524;55.740;37.544;2022-11-09T03:18:31;13.2;;;8.7;;
40048;SDS011;54524;55.740;37.544;2022-11-09T03:19:32;14;;;8.4;;
40048;SDS011;54524;55.740;37.544;2022-11-09T03:21:02;14;;;8.4;;
40048;SDS011;54524;55.740;37.544;2022-11-09T03:22:03;14;;;8.5;;
40048;SDS011;54524;55.740;37.544;2022-11-09T03:23:04;13.2;;;8.2;;
40048;SDS011;54524;55.740;37.544;2022-11-09T03:24:04;13.3;;;8.2;;
40048;SDS011;54524;55.740;37.544;2022-11-09T03:25:05;13.3;;;8.1;;
40048;SDS011;54524;55.740;37.544;2022-11-09T03:26:06;12.4;;;8.2;;
40048;SDS011;54524;55.740;37.544;2022-11-09T03:27:07;12.8;;;8.1;;
40048;SDS011;54524;55.740;37.544;2022-11-09T03:28:08;12.8;;;8.1;;
40048;SDS011;54524;55.740;37.544;2022-11-09T03:29:08;14.4;;;7.8;;
40048;SDS011;54524;55.740;37.544;2022-11-09T03:31:04;14.6;;;8;;
40048;SDS011;54524;55.740;37.544;2022-11-09T03:32:04;11.6;;;8.1;;
40048;SDS011;54524;55.740;37.544;2022-11-09T03:33:05;11.8;;;8.1;;
40048;SDS011;54524;55.740;37.544;2022-11-09T03:34:13;11.6;;;8;;
40048;SDS011;54524;55.740;37.544;2022-11-09T03:35:14;12.8;;;8.3;;
40048;SDS011;54524;55.740;37.544;2022-11-09T03:36:14;12.8;;;8.3;;
40048;SDS011;54524;55.740;37.544;2022-11-09T03:37:15;12.6;;;8.4;;
40048;SDS011;54524;55.740;37.544;2022-11-09T03:38:16;14.1;;;7.9;;
40048;SDS011;54524;55.740;37.544;2022-11-09T03:39:16;14;;;7.8;;
40048;SDS011;54524;55.740;37.544;2022-11-09T03:41:02;11;;;7.5;;
40048;SDS011;54524;55.740;37.544;2022-11-09T03:42:03;10.9;;;7.6;;
40048;SDS011;54524;55.740;37.544;2022-11-09T03:43:03;11;;;7.6;;
40048;SDS011;54524;55.740;37.544;2022-11-09T03:44:04;11;;;7.6;;
40048;SDS011;54524;55.740;37.544;2022-11-09T03:45:05;13.3;;;8.3;;
40048;SDS011;54524;55.740;37.544;2022-11-09T03:46:05;13.4;;;8.3;;
40048;SDS011;54524;55.740;37.544;2022-11-09T03:47:06;13.2;;;8.1;;
40048;SDS011;54524;55.740;37.544;2022-11-09T03:48:07;12.6;;;7.8;;
40048;SDS011;54524;55.740;37.544;2022-11-09T03:49:07;12.6;;;7.9;;
40048;SDS011;54524;55.740;37.544;2022-11-09T03:51:02;17.4;;;8.2;;
40048;SDS011;54524;55.740;37.544;2022-11-09T03:52:03;17.3;;;8.3;;
40048;SDS011;54524;55.740;37.544;2022-11-09T03:53:03;18.3;;;8.2;;
40048;SDS011;54524;55.740;37.544;2022-11-09T03:54:04;11.5;;;7.7;;
40048;SDS011;54524;55.740;37.544;2022-11-09T03:55:05;11.5;;;7.7;;
40048;SDS011;54524;55.740;37.544;2022-11-09T03:56:06;11.4;;;7.7;;
40048;SDS011;54524;55.740;37.544;2022-11-09T03:57:07;14.8;;;8.1;;
40048;SDS011;54524;55.740;37.544;2022-11-09T03:58:08;14.8;;;8.1;;
40048;SDS011;54524;55.740;37.544;2022-11-09T03:59:09;14.9;;;8.2;;
40048;SDS011;54524;55.740;37.544;2022-11-09T04:01:02;13.7;;;7.8;;
40048;SDS011;54524;55.740;37.544;2022-11-09T04:02:03;13.2;;;7.9;;
40048;SDS011;54524;55.740;37.544;2022-11-09T04:03:03;11.9;;;8;;
40048;SDS011;54524;55.740;37.544;2022-11-09T04:04:04;11.9;;;8.1;;
40048;SDS011;54524;55.740;37.544;2022-11-09T04:05:05;11.8;;;8;;
40048;SDS011;54524;55.740;37.544;2022-11-09T04:06:05;12.5;;;8;;
40048;SDS011;54524;55.740;37.544;2022-11-09T04:07:08;12.6;;;8;;
40048;SDS011;54524;55.740;37.544;2022-11-09T04:08:09;12.6;;;8.1;;
40048;SDS011;54524;55.740;37.544;2022-11-09T04:09:09;11;;;7.6;;
40048;SDS011;54524;55.740;37.544;2022-11-09T04:11:02;10.8;;;7.5;;
40048;SDS011;54524;55.740;37.544;2022-11-09T04:12:03;13;;;8;;
40048;SDS011;54524;55.740;37.544;2022-11-09T04:13:03;13.2;;;8.1;;
40048;SDS011;54524;55.740;37.544;2022-11-09T04:14:04;13.3;;;8.2;;
40048;SDS011;54524;55.740;37.544;2022-11-09T04:15:05;12.3;;;7.8;;
40048;SDS011;54524;55.740;37.544;2022-11-09T04:16:05;12.3;;;7.8;;
40048;SDS011;54524;55.740;37.544;2022-11-09T04:17:07;12.2;;;7.7;;
40048;SDS011;54524;55.740;37.544;2022-11-09T04:18:09;10.9;;;7.7;;
40048;SDS011;54524;55.740;37.544;2022-11-09T04:19:10;10.9;;;7.7;;
40048;SDS011;54524;55.740;37.544;2022-11-09T04:21:02;12.8;;;8.4;;
40048;SDS011;54524;55.740;37.544;2022-11-09T04:22:03;12.8;;;8.4;;
40048;SDS011;54524;55.740;37.544;2022-11-09T04:23:04;12.7;;;8.3;;
40048;SDS011;54524;55.740;37.544;2022-11-09T04:24:05;12;;;8.4;;
40048;SDS011;54524;55.740;37.544;2022-11-09T04:25:05;12;;;8.3;;
40048;SDS011;54524;55.740;37.544;2022-11-09T04:26:06;11.9;;;8.3;;
40048;SDS011;54524;55.740;37.544;2022-11-09T04:27:08;15.5;;;9.6;;
40048;SDS011;54524;55.740;37.544;2022-11-09T04:28:09;15.5;;;9.5;;
40048;SDS011;54524;55.740;37.544;2022-11-09T04:29:10;14.6;;;9.5;;
40048;SDS011;54524;55.740;37.544;2022-11-09T04:31:03;6.30;;;1.20;;
40048;SDS011;54524;55.740;37.544;2022-11-09T04:32:04;16.5;;;10.4;;
40048;SDS011;54524;55.740;37.544;2022-11-09T04:33:04;15.8;;;10.7;;
40048;SDS011;54524;55.740;37.544;2022-11-09T04:34:05;15.8;;;10.7;;
40048;SDS011;54524;55.740;37.544;2022-11-09T04:35:06;15.8;;;10.7;;
40048;SDS011;54524;55.740;37.544;2022-11-09T04:36:07;17.1;;;11.6;;
40048;SDS011;54524;55.740;37.544;2022-11-09T04:37:09;17.1;;;11.6;;
40048;SDS011;54524;55.740;37.544;2022-11-09T04:38:13;17.3;;;11.7;;
40048;SDS011;54524;55.740;37.544;2022-11-09T04:39:13;16.7;;;11;;
40048;SDS011;54524;55.740;37.544;2022-11-09T04:41:03;15.8;;;10.9;;
40048;SDS011;54524;55.740;37.544;2022-11-09T04:42:03;15.7;;;10.9;;
40048;SDS011;54524;55.740;37.544;2022-11-09T04:43:05;15.8;;;10.6;;
40048;SDS011;54524;55.740;37.544;2022-11-09T04:44:06;16;;;10.6;;
40048;SDS011;54524;55.740;37.544;2022-11-09T04:45:06;15.9;;;10.6;;
40048;SDS011;54524;55.740;37.544;2022-11-09T04:46:07;14.6;;;10.4;;
40048;SDS011;54524;55.740;37.544;2022-11-09T04:47:08;14.6;;;10.5;;
40048;SDS011;54524;55.740;37.544;2022-11-09T04:48:09;15.1;;;10.5;;
40048;SDS011;54524;55.740;37.544;2022-11-09T04:49:10;14.5;;;10.7;;
40048;SDS011;54524;55.740;37.544;2022-11-09T04:51:03;14.5;;;10.7;;
40048;SDS011;54524;55.740;37.544;2022-11-09T04:52:04;15.2;;;9.9;;
40048;SDS011;54524;55.740;37.544;2022-11-09T04:53:05;15.2;;;9.9;;
40048;SDS011;54524;55.740;37.544;2022-11-09T04:54:06;15.4;;;9.9;;
40048;SDS011;54524;55.740;37.544;2022-11-09T04:55:07;13.5;;;9.4;;
40048;SDS011;54524;55.740;37.544;2022-11-09T04:56:07;13.3;;;9.4;;
40048;SDS011;54524;55.740;37.544;2022-11-09T04:57:09;13.1;;;9.5;;
40048;SDS011;54524;55.740;37.544;2022-11-09T04:58:09;14.5;;;9.8;;
40048;SDS011;54524;55.740;37.544;2022-11-09T04:59:09;14.7;;;9.8;;
40048;SDS011;54524;55.740;37.544;2022-11-09T05:01:03;12.3;;;9.7;;
40048;SDS011;54524;55.740;37.544;2022-11-09T05:02:04;12.3;;;9.7;;
40048;SDS011;54524;55.740;37.544;2022-11-09T05:03:05;12.5;;;9.7;;
40048;SDS011;54524;55.740;37.544;2022-11-09T05:04:06;16.3;;;10.5;;
40048;SDS011;54524;55.740;37.544;2022-11-09T05:05:06;16.3;;;10.5;;
40048;SDS011;54524;55.740;37.544;2022-11-09T05:06:07;16.3;;;10.5;;
40048;SDS011;54524;55.740;37.544;2022-11-09T05:07:39;14.6;;;10.6;;
40048;SDS011;54524;55.740;37.544;2022-11-09T05:08:40;14.7;;;10.6;;
40048;SDS011;54524;55.740;37.544;2022-11-09T05:09:40;14.6;;;10.6;;
40048;SDS011;54524;55.740;37.544;2022-11-09T05:11:02;15.1;;;10.5;;
40048;SDS011;54524;55.740;37.544;2022-11-09T05:12:03;15.6;;;10.5;;
40048;SDS011;54524;55.740;37.544;2022-11-09T05:13:04;14.9;;;10.5;;
40048;SDS011;54524;55.740;37.544;2022-11-09T05:14:04;13.8;;;11;;
40048;SDS011;54524;55.740;37.544;2022-11-09T05:15:05;13.8;;;11;;
40048;SDS011;54524;55.740;37.544;2022-11-09T05:16:06;13.7;;;11;;
40048;SDS011;54524;55.740;37.544;2022-11-09T05:17:07;0;;;0;;
40048;SDS011;54524;55.740;37.544;2022-11-09T05:18:08;16;;;11;;
40048;SDS011;54524;55.740;37.544;2022-11-09T05:19:09;16.1;;;11.1;;
40048;SDS011;54524;55.740;37.544;2022-11-09T05:21:02;17.2;;;11.2;;
40048;SDS011;54524;55.740;37.544;2022-11-09T05:22:03;17;;;11.2;;
40048;SDS011;54524;55.740;37.544;2022-11-09T05:25:10;15.6;;;11.1;;
40048;SDS011;54524;55.740;37.544;2022-11-09T05:26:11;16;;;11.3;;
40048;SDS011;54524;55.740;37.544;2022-11-09T05:27:11;16.1;;;11.3;;
40048;SDS011;54524;55.740;37.544;2022-11-09T05:28:12;15.8;;;11.3;;
40048;SDS011;54524;55.740;37.544;2022-11-09T05:29:13;14.3;;;10.4;;
40048;SDS011;54524;55.740;37.544;2022-11-09T05:31:03;14.6;;;10.4;;
40048;SDS011;54524;55.740;37.544;2022-11-09T05:32:03;15.1;;;11.2;;
40048;SDS011;54524;55.740;37.544;2022-11-09T05:33:04;15.7;;;11.2;;
40048;SDS011;54524;55.740;37.544;2022-11-09T05:34:05;15.6;;;11.1;;
40048;SDS011;54524;55.740;37.544;2022-11-09T05:35:06;14.7;;;11.9;;
40048;SDS011;54524;55.740;37.544;2022-11-09T05:36:07;14.6;;;11.7;;
40048;SDS011;54524;55.740;37.544;2022-11-09T05:37:09;14.9;;;11.6;;
40048;SDS011;54524;55.740;37.544;2022-11-09T05:38:10;0;;;0;;
40048;SDS011;54524;55.740;37.544;2022-11-09T05:39:10;14.4;;;11.5;;
40048;SDS011;54524;55.740;37.544;2022-11-09T05:41:03;16;;;11.1;;
40048;SDS011;54524;55.740;37.544;2022-11-09T05:42:04;16.2;;;11.1;;
40048;SDS011;54524;55.740;37.544;2022-11-09T05:43:04;16.2;;;11.2;;
40048;SDS011;54524;55.740;37.544;2022-11-09T05:44:05;17.1;;;12.3;;
40048;SDS011;54524;55.740;37.544;2022-11-09T05:45:06;17;;;12.3;;
40048;SDS011;54524;55.740;37.544;2022-11-09T05:46:07;17;;;12.3;;
40048;SDS011;54524;55.740;37.544;2022-11-09T05:47:08;13.8;;;10.3;;
40048;SDS011;54524;55.740;37.544;2022-11-09T05:48:08;14;;;10.3;;
40048;SDS011;54524;55.740;37.544;2022-11-09T05:49:09;14.1;;;10.3;;
40048;SDS011;54524;55.740;37.544;2022-11-09T05:51:03;11.1;;;8.5;;
40048;SDS011;54524;55.740;37.544;2022-11-09T05:52:04;11.1;;;8.6;;
40048;SDS011;54524;55.740;37.544;2022-11-09T05:53:04;12.2;;;8.3;;
40048;SDS011;54524;55.740;37.544;2022-11-09T05:54:05;12.1;;;8.3;;
40048;SDS011;54524;55.740;37.544;2022-11-09T05:55:06;12;;;8.3;;
40048;SDS011;54524;55.740;37.544;2022-11-09T05:56:07;10.5;;;7.7;;
40048;SDS011;54524;55.740;37.544;2022-11-09T05:57:09;10.4;;;7.7;;
40048;SDS011;54524;55.740;37.544;2022-11-09T05:58:09;10.8;;;7.8;;
40048;SDS011;54524;55.740;37.544;2022-11-09T05:59:10;10.5;;;6.9;;
40048;SDS011;54524;55.740;37.544;2022-11-09T06:01:03;10.2;;;6.9;;
40048;SDS011;54524;55.740;37.544;2022-11-09T06:02:04;10.2;;;6.9;;
40048;SDS011;54524;55.740;37.544;2022-11-09T06:03:06;12.8;;;6.8;;
40048;SDS011;54524;55.740;37.544;2022-11-09T06:04:06;13.1;;;6.9;;
40048;SDS011;54524;55.740;37.544;2022-11-09T06:05:07;13;;;6.9;;
40048;SDS011;54524;55.740;37.544;2022-11-09T06:06:09;10.6;;;7;;
40048;SDS011;54524;55.740;37.544;2022-11-09T06:07:10;11.2;;;7;;
40048;SDS011;54524;55.740;37.544;2022-11-09T06:08:13;11.4;;;6.9;;
40048;SDS011;54524;55.740;37.544;2022-11-09T06:09:14;11.6;;;6.9;;
40048;SDS011;54524;55.740;37.544;2022-11-09T06:11:03;11.4;;;6.9;;
40048;SDS011;54524;55.740;37.544;2022-11-09T06:12:04;12.9;;;6.7;;
40048;SDS011;54524;55.740;37.544;2022-11-09T06:13:05;12.5;;;6.8;;
40048;SDS011;54524;55.740;37.544;2022-11-09T06:14:05;12.6;;;6.8;;
40048;SDS011;54524;55.740;37.544;2022-11-09T06:15:06;11;;;6.4;;
40048;SDS011;54524;55.740;37.544;2022-11-09T06:16:08;11.3;;;6.4;;
40048;SDS011;54524;55.740;37.544;2022-11-09T06:17:09;11.1;;;6.3;;
40048;SDS011;54524;55.740;37.544;2022-11-09T06:18:09;9.2;;;6.5;;
40048;SDS011;54524;55.740;37.544;2022-11-09T06:19:10;9;;;6.4;;
40048;SDS011;54524;55.740;37.544;2022-11-09T06:21:03;10.3;;;6.5;;
40048;SDS011;54524;55.740;37.544;2022-11-09T06:22:04;10.3;;;6.5;;
40048;SDS011;54524;55.740;37.544;2022-11-09T06:23:05;10.2;;;6.4;;
40048;SDS011;54524;55.740;37.544;2022-11-09T06:24:06;10.1;;;6.6;;
40048;SDS011;54524;55.740;37.544;2022-11-09T06:25:07;10.1;;;6.5;;
40048;SDS011;54524;55.740;37.544;2022-11-09T06:26:08;10.1;;;6.5;;
40048;SDS011;54524;55.740;37.544;2022-11-09T06:27:09;11.6;;;7;;
40048;SDS011;54524;55.740;37.544;2022-11-09T06:28:10;11.6;;;7;;
40048;SDS011;54524;55.740;37.544;2022-11-09T06:29:10;11.6;;;7;;
40048;SDS011;54524;55.740;37.544;2022-11-09T06:31:04;13.3;;;7.5;;
40048;SDS011;54524;55.740;37.544;2022-11-09T06:32:05;13.4;;;7.6;;
40048;SDS011;54524;55.740;37.544;2022-11-09T06:33:05;10.2;;;7.2;;
40048;SDS011;54524;55.740;37.544;2022-11-09T06:34:06;10.2;;;7.2;;
40048;SDS011;54524;55.740;37.544;2022-11-09T06:35:08;10.2;;;7.2;;
40048;SDS011;54524;55.740;37.544;2022-11-09T06:36:08;0;;;0;;
40048;SDS011;54524;55.740;37.544;2022-11-09T06:37:11;14;;;7;;
40048;SDS011;54524;55.740;37.544;2022-11-09T06:38:12;13.8;;;7;;
40048;SDS011;54524;55.740;37.544;2022-11-09T06:39:12;12.8;;;7.4;;
40048;SDS011;54524;55.740;37.544;2022-11-09T06:41:03;6.30;;;1.20;;
40048;SDS011;54524;55.740;37.544;2022-11-09T06:42:03;13.4;;;7.5;;
40048;SDS011;54524;55.740;37.544;2022-11-09T06:43:04;13.3;;;7.3;;